Nearby METAR Reports

 

KBFI - Seattle/Boeing, Washington, USA
Distance from station: S 4mi, 7km
Updated: 2019-04-24 12:53
Mostly cloudy
Mostly cloudy
 Wind from calm
Wind: Calm
Temperature: 57°F , 14°C
Dew Point: 41°F , 5°C
Humidity: 55%
Barometer: 30.35 inHg , 1027.8 hPa
Clouds: Mostly cloudy
Visibility: 10 miles , 16 km
Cloud details: Partly cloudy 3700 ft
Mostly cloudy 4400 ft
2019/04/24 19:53 KBFI 241953Z 00000KT 10SM SCT037 BKN044 14/05 A3035 RMK AO2 SLP278 T01390050
KRNT - Renton, Washington, USA
Distance from station: SSE 9mi, 14km
Updated: 2019-04-24 12:53
Clear
Clear
 Wind from NW
Wind: NW 8 mph , 13 km/h
Temperature: 55°F , 13°C
Dew Point: 43°F , 6°C
Humidity: 63%
Barometer: 30.35 inHg , 1027.8 hPa
Clouds: Clear
Visibility: 10 miles , 16 km
2019/04/24 19:53 KRNT 241953Z 32007KT 10SM CLR 13/06 A3035 RMK AO2 SLP281 T01330056
 
KSEA - Seattle/Metro, Washington, USA
Distance from station: S 11mi, 18km
Updated: 2019-04-24 12:53
Mostly cloudy
Mostly cloudy
 Wind from calm
Wind: Calm
Temperature: 55°F , 13°C
Dew Point: 41°F , 5°C
Humidity: 59%
Barometer: 30.35 inHg , 1027.8 hPa
Clouds: Mostly cloudy
Visibility: 10 miles , 16 km
Cloud details: Partly cloudy 2500 ft
Mostly cloudy 3400 ft
2019/04/24 19:53 KSEA 241953Z 00000KT 10SM SCT025 BKN034 13/05 A3035 RMK AO2 SLP284 T01330050
KPAE - Everett, Washington, USA
Distance from station: N 21mi, 34km
Updated: 2019-04-24 12:53
Partly cloudy
Partly cloudy
 Wind from N
Wind: N 7 mph , 11 km/h
Temperature: 54°F , 12°C
Dew Point: 39°F , 4°C
Humidity: 58%
Barometer: 30.36 inHg , 1028.1 hPa
Clouds: Partly cloudy
Visibility: 10 miles , 16 km
Cloud details: Partly cloudy 2900 ft
2019/04/24 19:53 KPAE 241953Z 01006KT 10SM SCT029 12/04 A3036 RMK AO2 SLP283 T01220039
 
KPWT - Bremerton Ntnl, Washington, USA
Distance from station: WSW 22mi, 35km
Updated: 2019-04-24 12:56
Overcast
Overcast
 Wind from NNE
Wind: NNE 6 mph , 9 km/h
Temperature: 55°F , 13°C
Dew Point: 39°F , 4°C
Humidity: 55%
Barometer: 30.35 inHg , 1027.8 hPa
Clouds: Overcast
Visibility: 10 miles , 16 km
Cloud details: Overcast 4000 ft
2019/04/24 19:56 KPWT 241956Z AUTO 03005KT 10SM OVC040 13/04 A3035 RMK AO2 SLP298 T01280039
KTIW - Tacoma, Washington, USA
Distance from station: SSW 27mi, 43km
Updated: 2019-04-24 12:53
Partly cloudy
Partly cloudy
 Wind from E
Wind: E 7 mph , 11 km/h
Temperature: 54°F , 12°C
Dew Point: 39°F , 4°C
Humidity: 58%
Barometer: 30.36 inHg , 1028.1 hPa
Clouds: Partly cloudy
Visibility: 10 miles , 16 km
Cloud details: Partly cloudy 3500 ft
2019/04/24 19:53 KTIW 241953Z 09006KT 10SM SCT035 12/04 A3036 RMK AO2 SLP283 T01220039
 
KTCM - Tacoma/Mc Chord, Washington, USA
Distance from station: S 35mi, 56km
Updated: 2019-04-24 12:58
Few Clouds
Few Clouds
 Wind from N
Wind: N 5 mph , 7 km/h
Temperature: 55°F , 13°C
Dew Point: 46°F , 8°C
Humidity: 72%
Barometer: 30.35 inHg , 1027.8 hPa
Clouds: Few Clouds
Visibility: 10 miles , 16 km
Cloud details: Few Clouds 3500 ft
2019/04/24 19:58 KTCM 241958Z AUTO 36004KT 10SM FEW035 13/08 A3035 RMK AO2 SLP282 T01310075 RVRNO CHINO RWY34 $
KPLU - Puyallup/Thun, Washington, USA
Distance from station: S 35mi, 57km
Updated: 2019-04-24 12:55
Clear
Clear
 Wind from N
Wind: N 0 mph , 0 km/h, Gust: 12 mph , 19 km/h
Temperature: 57°F , 14°C
Dew Point: 41°F , 5°C
Humidity: 55%
Barometer: 30.34 inHg , 1027.4 hPa
Clouds: Clear
2019/04/24 19:55 KPLU 241955Z AUTO 00000G10KT CLR 14/05 A3034 RMK AO2
 
K0S9 - Port Townsend, Washington, USA
Distance from station: NW 38mi, 62km
Updated: 2019-04-24 13:15
Overcast
Overcast
 Wind from E
Wind: E 8 mph , 13 km/h
Temperature: 55°F , 13°C
Dew Point: 43°F , 6°C
Humidity: 63%
Barometer: 30.36 inHg , 1028.1 hPa
Clouds: Overcast
Visibility: 10 miles , 16 km
Cloud details: Mostly cloudy 4000 ft
Overcast 4700 ft
2019/04/24 20:15 K0S9 242015Z AUTO 09007KT 10SM BKN040 OVC047 13/06 A3036 RMK AO2
KAWO - Arlington Muni, Washington, USA
Distance from station: N 39mi, 63km
Updated: 2019-04-24 12:56
Few Clouds
Few Clouds
 Wind from varies
Wind: varies 3 mph , 6 km/h
Temperature: 55°F , 13°C
Dew Point: 41°F , 5°C
Humidity: 59%
Barometer: 30.36 inHg , 1028.1 hPa
Clouds: Few Clouds
Visibility: 10 miles , 16 km
Cloud details: Few Clouds 3500 ft
2019/04/24 19:56 KAWO 241956Z AUTO VRB03KT 10SM FEW035 13/05 A3036 RMK AO2 SLP284 T01330050 $
 
KGRF - Fort Lewis/Gray, Washington, USA
Distance from station: SSW 39mi, 64km
Updated: 2019-04-24 12:58
Few Clouds
Few Clouds
 Wind from NNW
Wind: NNW 5 mph , 7 km/h
Temperature: 55°F , 13°C
Dew Point: 45°F , 7°C
Humidity: 67%
Barometer: 30.34 inHg , 1027.4 hPa
Clouds: Few Clouds
Visibility: 10 miles , 16 km
Cloud details: Few Clouds 3300 ft
2019/04/24 19:58 KGRF 241958Z AUTO 34004KT 10SM FEW033 13/07 A3034 RMK AO2 SLP279 T01300074 $
KSHN - Shelton, Washington, USA
Distance from station: SW 46mi, 75km
Updated: 2019-04-24 12:53
Mostly cloudy
Mostly cloudy
 Wind from SE
Wind: SE 5 mph , 7 km/h
Temperature: 57°F , 14°C
Dew Point: 39°F , 4°C
Humidity: 51%
Barometer: 30.33 inHg , 1027.1 hPa
Clouds: Mostly cloudy
Visibility: 10 miles , 16 km
Cloud details: Mostly cloudy 4300 ft
Mostly cloudy 5000 ft
2019/04/24 19:53 KSHN 241953Z AUTO 13004KT 10SM BKN043 BKN050 14/04 A3033 RMK AO2 SLP272 T01440039